Time;durP1;ratioP1;P1;durP2;ratioP2;P2;SDS_P1;SDS_P2;PMS_P1;PMS_P2;Temp;Humidity;BMP_temperature;BMP_pressure;BME280_temperature;BME280_humidity;BME280_pressure;Samples;Min_cycle;Max_cycle;Signal;HPM_P1;HPM_P2
2023/03/28 00:00:58;;;;;;;;;;;;;;;-0.54;85.82;102075.28;4957750;28;19987;-72
2023/03/28 00:03:26;;;;;;;;;;;;;;;-0.64;85.74;102077.22;4973144;28;19975;-72
2023/03/28 00:05:55;;;;;;;;;;;;;;;-0.58;86.07;102081.84;4957614;28;19954;-73
2023/03/28 00:08:20;;;;;;;;;;;;;;;-0.79;86.73;102099.91;4961044;28;19940;-71
2023/03/28 00:10:46;;;;;;;;;;;;;;;-0.66;86.25;102085.28;4943890;28;19955;-71
2023/03/28 00:13:14;;;;;;;;;;;;;;;-0.73;86.24;102088.72;4958590;28;19959;-73
2023/03/28 00:15:42;;;;;;;;;;;;;;;-0.52;85.06;102096.16;4959243;28;20141;-72
2023/03/28 00:18:10;;;;;;;;;;;;;;;-0.65;85.58;102099.25;4956038;28;19975;-71
2023/03/28 00:20:42;;;;;;;;;;;;;;;-0.71;85.48;102098.09;4938745;28;19999;-72
2023/03/28 00:23:08;;;;;;;;;;;;;;;-0.61;85.13;102104.06;4959921;28;19992;-71
2023/03/28 00:25:34;;;;;;;;;;;;;;;-0.69;85.66;102116.34;4943266;28;19941;-72
2023/03/28 00:28:01;;;;;;;;;;;;;;;-0.75;85.74;102119.63;4955313;28;19939;-72
2023/03/28 00:30:27;;;;;;;;;;;;;;;-0.74;85.31;102124.75;4944699;28;19961;-71
2023/03/28 00:32:52;;;;;;;;;;;;;;;-0.65;85.23;102128.22;4959930;28;19956;-71
2023/03/28 00:35:18;;;;;;;;;;;;;;;-0.85;85.52;102122.41;4959554;28;20426;-71
2023/03/28 00:37:44;;;;;;;;;;;;;;;-0.85;85.23;102125.03;4958690;28;20405;-72
2023/03/28 00:40:12;;;;;;;;;;;;;;;-0.83;85.46;102136.22;4943162;28;20041;-72
2023/03/28 00:42:41;;;;;;;;;;;;;;;-1.03;86.42;102140.09;4920820;28;20028;-71
2023/03/28 00:45:10;;;;;;;;;;;;;;;-0.95;85.97;102140.09;4959253;28;19932;-72
2023/03/28 00:47:36;;;;;;;;;;;;;;;-0.84;84.91;102145.91;4937717;28;20054;-73
2023/03/28 00:50:09;;;;;;;;;;;;;;;-0.96;85.38;102152.44;4944254;28;20046;-73
2023/03/28 00:52:41;;;;;;;;;;;;;;;-0.89;85.70;102148.19;4956308;28;19964;-73
2023/03/28 00:55:11;;;;;;;;;;;;;;;-0.95;85.03;102153.25;4945837;28;20250;-72
2023/03/28 00:57:37;;;;;;;;;;;;;;;-1.01;85.42;102154.75;4936844;28;20352;-73
2023/03/28 01:00:05;;;;;;;;;;;;;;;-1.11;85.11;102152.22;4942979;28;19959;-73
2023/03/28 01:02:31;;;;;;;;;;;;;;;-0.99;84.41;102168.56;4957993;28;20128;-72
2023/03/28 01:04:58;;;;;;;;;;;;;;;-1.15;84.77;102169.31;4944241;28;20395;-72
2023/03/28 01:07:28;;;;;;;;;;;;;;;-1.11;84.55;102173.25;4960705;28;19937;-72
2023/03/28 01:09:54;;;;;;;;;;;;;;;-1.27;84.44;102172.38;4957151;28;20007;-74
2023/03/28 01:12:21;;;;;;;;;;;;;;;-1.18;84.34;102176.69;4927957;28;19961;-73
2023/03/28 01:14:49;;;;;;;;;;;;;;;-1.24;84.30;102180.75;4932045;28;20286;-71
2023/03/28 01:17:15;;;;;;;;;;;;;;;-1.35;84.70;102183.66;4962620;28;19946;-73
2023/03/28 01:19:57;;;;;;;;;;;;;;;-1.25;84.57;102187.00;4943928;28;19962;-72
2023/03/28 01:22:41;;;;;;;;;;;;;;;-1.35;85.63;102193.31;4923960;28;20632;-72
2023/03/28 01:25:25;;;;;;;;;;;;;;;-1.30;85.01;102191.06;4946748;28;19938;-72
2023/03/28 01:28:12;;;;;;;;;;;;;;;-1.30;84.33;102191.06;4953155;28;19936;-75
2023/03/28 01:30:58;;;;;;;;;;;;;;;-1.45;84.46;102196.91;4975207;28;20045;-76
2023/03/28 01:33:44;;;;;;;;;;;;;;;-1.40;84.65;102194.63;4955785;28;19958;-74
2023/03/28 01:36:28;;;;;;;;;;;;;;;-1.54;84.72;102200.47;4940675;28;20382;-74
2023/03/28 01:38:59;;;;;;;;;;;;;;;-1.56;83.62;102218.16;4939170;28;20293;-74
2023/03/28 01:41:30;;;;;;;;;;;;;;;-1.27;82.75;102222.31;4959352;28;19940;-74
2023/03/28 01:44:09;;;;;;;;;;;;;;;-1.38;83.01;102218.94;4955085;28;19936;-73
2023/03/28 01:46:42;;;;;;;;;;;;;;;-1.32;82.83;102219.31;4934197;28;20356;-73
2023/03/28 01:49:22;;;;;;;;;;;;;;;-1.52;82.87;102222.16;4952548;28;19952;-73
2023/03/28 01:51:55;;;;;;;;;;;;;;;-1.63;83.68;102230.25;4958416;28;19963;-74
2023/03/28 01:54:36;;;;;;;;;;;;;;;-1.64;84.63;102236.50;4950919;28;19937;-73
2023/03/28 01:57:09;;;;;;;;;;;;;;;-1.62;83.81;102229.31;4957303;28;19940;-72
2023/03/28 01:59:42;;;;;;;;;;;;;;;-1.68;84.22;102233.38;4942556;28;19958;-74
2023/03/28 02:02:29;;;;;;;;;;;;;;;-1.83;85.05;102234.03;4961046;28;19946;-73
2023/03/28 02:05:05;;;;;;;;;;;;;;;-1.72;85.30;102225.94;4935866;28;19937;-71
2023/03/28 02:07:36;;;;;;;;;;;;;;;-1.85;85.31;102228.13;4961411;28;19963;-73
2023/03/28 02:10:11;;;;;;;;;;;;;;;-1.51;84.01;102233.47;4937328;28;19971;-72
2023/03/28 02:13:00;;;;;;;;;;;;;;;-1.88;85.60;102239.75;4943848;28;19980;-73
2023/03/28 02:15:46;;;;;;;;;;;;;;;-1.97;85.81;102246.72;4950656;28;20374;-73
2023/03/28 02:18:36;;;;;;;;;;;;;;;-2.13;86.42;102251.84;4948241;28;19935;-73
2023/03/28 02:22:05;;;;;;;;;;;;;;;-1.89;85.44;102237.28;4963174;28;19937;-73
2023/03/28 02:24:33;;;;;;;;;;;;;;;-2.08;85.58;102244.34;4949697;28;19950;-73
2023/03/28 02:27:31;;;;;;;;;;;;;;;-2.19;86.24;102241.94;4966397;28;19984;-73
2023/03/28 02:30:16;;;;;;;;;;;;;;;-2.20;86.19;102246.34;4980732;28;19960;-72
2023/03/28 02:32:49;;;;;;;;;;;;;;;-2.17;86.36;102245.22;4945036;28;20014;-73
2023/03/28 02:35:26;;;;;;;;;;;;;;;-2.08;86.31;102249.59;4944400;28;20022;-74
2023/03/28 02:37:54;;;;;;;;;;;;;;;-2.23;85.99;102256.34;4945227;28;19932;-75
2023/03/28 02:40:43;;;;;;;;;;;;;;;-2.06;86.26;102259.94;4950165;28;19984;-73
2023/03/28 02:43:17;;;;;;;;;;;;;;;-2.01;85.74;102260.31;4934490;28;19934;-73
2023/03/28 02:45:48;;;;;;;;;;;;;;;-2.18;85.74;102261.94;4957881;28;20438;-74
2023/03/28 02:48:32;;;;;;;;;;;;;;;-2.20;86.20;102262.09;4959186;28;19945;-75
2023/03/28 02:51:02;;;;;;;;;;;;;;;-2.05;85.85;102265.03;4969289;28;19958;-72
2023/03/28 02:53:34;;;;;;;;;;;;;;;-2.29;85.79;102270.88;4931781;28;19963;-73
2023/03/28 02:56:00;;;;;;;;;;;;;;;-1.96;84.73;102253.66;4962661;28;19982;-73
2023/03/28 02:58:45;;;;;;;;;;;;;;;-2.11;84.59;102265.63;4963186;28;20010;-73
2023/03/28 03:01:13;;;;;;;;;;;;;;;-2.27;84.84;102268.09;4946509;28;19979;-73
2023/03/28 03:03:38;;;;;;;;;;;;;;;-2.49;85.78;102272.78;4954755;28;20032;-74
2023/03/28 03:06:05;;;;;;;;;;;;;;;-2.32;86.31;102268.53;4948899;28;20035;-75
2023/03/28 03:08:30;;;;;;;;;;;;;;;-2.52;86.25;102280.09;4944270;28;19968;-74
2023/03/28 03:10:56;;;;;;;;;;;;;;;-2.62;87.10;102272.28;4956257;28;19942;-72
2023/03/28 03:13:22;;;;;;;;;;;;;;;-2.51;87.11;102274.72;4932920;28;19959;-74
2023/03/28 03:15:48;;;;;;;;;;;;;;;-2.66;87.46;102270.91;4957007;28;19937;-73
2023/03/28 03:18:19;;;;;;;;;;;;;;;-2.68;87.64;102279.91;4950012;28;19937;-74
2023/03/28 03:20:44;;;;;;;;;;;;;;;-2.85;87.43;102276.25;4956360;28;19951;-73
2023/03/28 03:23:11;;;;;;;;;;;;;;;-2.58;88.00;102284.13;4943272;28;20281;-73
2023/03/28 03:25:36;;;;;;;;;;;;;;;-2.79;87.60;102291.41;4957132;28;19936;-73
2023/03/28 03:28:18;;;;;;;;;;;;;;;-2.70;88.15;102280.06;4962382;28;19937;-72
2023/03/28 03:30:44;;;;;;;;;;;;;;;-2.82;87.67;102282.03;4932775;28;19948;-72
2023/03/28 03:33:28;;;;;;;;;;;;;;;-2.80;88.14;102285.34;4963471;28;20019;-73
2023/03/28 03:35:59;;;;;;;;;;;;;;;-2.66;87.62;102285.81;4959979;28;20306;-75
2023/03/28 03:38:25;;;;;;;;;;;;;;;-2.62;87.67;102280.16;4950071;28;19938;-73
2023/03/28 03:40:51;;;;;;;;;;;;;;;-2.45;87.50;102288.22;4944948;28;19940;-73
2023/03/28 03:43:16;;;;;;;;;;;;;;;-2.61;87.22;102294.91;4961097;28;19945;-74
2023/03/28 03:45:44;;;;;;;;;;;;;;;-2.57;87.86;102287.59;4943529;28;19950;-73
2023/03/28 03:48:10;;;;;;;;;;;;;;;-2.71;87.97;102298.53;4947440;28;20350;-73
2023/03/28 03:50:36;;;;;;;;;;;;;;;-2.78;88.17;102293.91;4959151;28;19961;-74
2023/03/28 03:53:09;;;;;;;;;;;;;;;-2.76;88.67;102301.63;4961785;28;19975;-72
2023/03/28 03:55:40;;;;;;;;;;;;;;;-3.00;88.38;102293.41;4933845;28;19940;-74
2023/03/28 03:58:06;;;;;;;;;;;;;;;-2.92;88.66;102298.75;4947087;28;19934;-73
2023/03/28 04:00:32;;;;;;;;;;;;;;;-2.86;89.45;102296.38;4962484;28;20469;-74
2023/03/28 04:02:58;;;;;;;;;;;;;;;-3.04;88.79;102309.44;4945257;28;19938;-74
2023/03/28 04:05:26;;;;;;;;;;;;;;;-3.02;89.34;102307.47;4939637;28;19980;-73
2023/03/28 04:08:05;;;;;;;;;;;;;;;-2.98;89.34;102299.31;4952058;28;20012;-74
2023/03/28 04:10:37;;;;;;;;;;;;;;;-2.84;89.26;102304.97;4978784;28;19956;-73
2023/03/28 04:13:06;;;;;;;;;;;;;;;-2.85;89.18;102297.22;4961102;28;20036;-73
2023/03/28 04:15:33;;;;;;;;;;;;;;;-2.81;89.09;102299.41;4925692;28;19939;-73
2023/03/28 04:18:19;;;;;;;;;;;;;;;-2.97;89.21;102298.38;4956558;28;19940;-73
2023/03/28 04:20:48;;;;;;;;;;;;;;;-2.87;89.45;102309.66;4958182;28;19960;-73
2023/03/28 04:23:24;;;;;;;;;;;;;;;-2.88;89.54;102297.50;4962158;28;20314;-74
2023/03/28 04:25:54;;;;;;;;;;;;;;;-2.92;89.42;102307.44;4961126;28;20388;-73
2023/03/28 04:28:38;;;;;;;;;;;;;;;-2.78;89.61;102308.78;4937956;28;19955;-74
2023/03/28 04:31:06;;;;;;;;;;;;;;;-2.94;89.63;102311.19;4940753;28;19984;-74
2023/03/28 04:33:52;;;;;;;;;;;;;;;-2.97;89.79;102314.09;4978455;28;19992;-74
2023/03/28 04:36:21;;;;;;;;;;;;;;;-3.02;90.27;102315.34;4943255;28;19940;-74
2023/03/28 04:38:57;;;;;;;;;;;;;;;-3.10;90.15;102319.66;4962287;28;19954;-74
2023/03/28 04:41:48;;;;;;;;;;;;;;;-3.08;90.31;102313.28;4930710;28;20532;-74
2023/03/28 04:44:24;;;;;;;;;;;;;;;-3.02;90.58;102315.34;4962379;28;19950;-73
2023/03/28 04:46:57;;;;;;;;;;;;;;;-3.14;90.33;102323.50;4946796;28;19945;-74
2023/03/28 04:49:23;;;;;;;;;;;;;;;-3.11;90.40;102318.84;4960192;28;19959;-73
2023/03/28 04:51:52;;;;;;;;;;;;;;;-3.14;90.29;102319.09;4960501;28;20432;-73
2023/03/28 04:54:18;;;;;;;;;;;;;;;-2.96;90.59;102326.25;4960693;28;19940;-74
2023/03/28 04:57:03;;;;;;;;;;;;;;;-3.05;90.36;102331.38;4966022;28;19944;-74
2023/03/28 04:59:40;;;;;;;;;;;;;;;-2.95;90.54;102335.75;4930437;28;19987;-73
2023/03/28 05:02:06;;;;;;;;;;;;;;;-2.95;90.42;102331.34;4962767;28;19973;-74
2023/03/28 05:04:39;;;;;;;;;;;;;;;-2.82;90.23;102338.91;4962627;28;19935;-73
2023/03/28 05:07:06;;;;;;;;;;;;;;;-2.81;90.31;102332.69;4962097;28;19964;-73
2023/03/28 05:09:33;;;;;;;;;;;;;;;-2.76;90.37;102341.78;4959582;28;19964;-73
2023/03/28 05:11:58;;;;;;;;;;;;;;;-2.82;90.64;102344.13;4945026;28;19961;-74
2023/03/28 05:14:24;;;;;;;;;;;;;;;-2.59;90.28;102345.44;4963264;28;19942;-73
2023/03/28 05:16:56;;;;;;;;;;;;;;;-2.61;89.75;102342.13;4940864;28;19987;-73
2023/03/28 05:19:57;;;;;;;;;;;;;;;-2.60;89.96;102359.53;4982115;28;19954;-73
2023/03/28 05:22:24;;;;;;;;;;;;;;;-2.62;89.82;102356.22;4946266;28;20029;-73
2023/03/28 05:24:51;;;;;;;;;;;;;;;-2.61;89.90;102362.28;4957959;28;19944;-75
2023/03/28 05:27:18;;;;;;;;;;;;;;;-2.52;90.08;102361.41;4941904;28;19934;-75
2023/03/28 05:29:45;;;;;;;;;;;;;;;-2.44;90.17;102371.19;4939188;28;20472;-72
2023/03/28 05:32:11;;;;;;;;;;;;;;;-2.41;90.25;102376.16;4946593;28;19965;-74
2023/03/28 05:34:38;;;;;;;;;;;;;;;-2.49;90.41;102377.72;4940579;28;19982;-74
2023/03/28 05:37:04;;;;;;;;;;;;;;;-2.47;90.50;102385.44;4957279;28;19980;-73
2023/03/28 05:39:40;;;;;;;;;;;;;;;-2.43;90.37;102376.31;4957708;28;20126;-73
2023/03/28 05:42:07;;;;;;;;;;;;;;;-2.49;90.40;102377.72;4944963;28;19936;-73
2023/03/28 05:44:35;;;;;;;;;;;;;;;-2.56;90.40;102376.63;4965697;28;20009;-73
2023/03/28 05:47:26;;;;;;;;;;;;;;;-2.44;90.49;102373.81;4965354;28;19940;-73
2023/03/28 05:49:52;;;;;;;;;;;;;;;-2.44;90.71;102386.94;4955976;28;19961;-74
2023/03/28 05:52:19;;;;;;;;;;;;;;;-2.33;90.64;102392.84;4942056;28;19958;-73
2023/03/28 05:54:46;;;;;;;;;;;;;;;-2.15;90.46;102400.78;4957549;28;20672;-74
2023/03/28 05:57:14;;;;;;;;;;;;;;;-1.94;90.10;102396.09;4941059;28;20331;-74
2023/03/28 05:59:40;;;;;;;;;;;;;;;-1.70;89.79;102389.44;4962000;28;20527;-73
2023/03/28 06:02:11;;;;;;;;;;;;;;;-1.66;90.17;102396.06;4946128;28;19933;-74
2023/03/28 06:04:38;;;;;;;;;;;;;;;-1.60;89.95;102400.75;4937406;28;20413;-72
2023/03/28 06:07:05;;;;;;;;;;;;;;;-1.47;89.25;102401.19;4959892;28;19986;-72
2023/03/28 06:09:31;;;;;;;;;;;;;;;-1.43;89.79;102399.91;4961807;28;19975;-73
2023/03/28 06:11:58;;;;;;;;;;;;;;;-1.43;90.24;102389.41;4940133;28;19966;-73
2023/03/28 06:14:24;;;;;;;;;;;;;;;-1.20;90.23;102399.47;4943796;28;19944;-73
2023/03/28 06:16:52;;;;;;;;;;;;;;;-0.91;90.79;102402.66;4952201;28;19946;-75
2023/03/28 06:19:18;;;;;;;;;;;;;;;-0.41;90.25;102396.69;4930693;28;20055;-76
2023/03/28 06:21:49;;;;;;;;;;;;;;;-0.27;88.50;102395.31;4945976;28;19941;-75
2023/03/28 06:24:14;;;;;;;;;;;;;;;-0.06;87.18;102397.56;4959511;28;19944;-75
2023/03/28 06:26:41;;;;;;;;;;;;;;;0.11;86.94;102396.59;4959018;28;19938;-76
2023/03/28 06:29:08;;;;;;;;;;;;;;;0.21;86.32;102401.75;4956790;28;19966;-74
2023/03/28 06:31:39;;;;;;;;;;;;;;;0.30;86.60;102394.69;4938647;28;19933;-74
2023/03/28 06:34:05;;;;;;;;;;;;;;;0.43;85.59;102398.50;4953209;28;19944;-74
2023/03/28 06:36:33;;;;;;;;;;;;;;;0.54;84.51;102399.97;4942113;28;19961;-73
2023/03/28 06:39:00;;;;;;;;;;;;;;;0.78;84.69;102400.00;4958150;28;20434;-74
2023/03/28 06:41:27;;;;;;;;;;;;;;;0.91;83.35;102401.34;4945587;28;19941;-74
2023/03/28 06:43:52;;;;;;;;;;;;;;;1.10;83.46;102408.94;4957602;28;19932;-74
2023/03/28 06:46:36;;;;;;;;;;;;;;;1.24;82.70;102402.16;4953115;28;19952;-74
2023/03/28 06:49:03;;;;;;;;;;;;;;;1.33;82.60;102398.50;4931783;28;19947;-73
2023/03/28 06:51:47;;;;;;;;;;;;;;;1.35;81.42;102413.19;4958933;28;19937;-73
2023/03/28 06:54:13;;;;;;;;;;;;;;;1.43;81.46;102417.63;4952250;28;19935;-73
2023/03/28 06:56:39;;;;;;;;;;;;;;;1.54;81.54;102427.00;4960154;28;19940;-73
2023/03/28 06:59:05;;;;;;;;;;;;;;;1.64;80.86;102417.09;4958425;28;20292;-73
2023/03/28 07:01:31;;;;;;;;;;;;;;;1.71;80.62;102420.69;4982309;28;19945;-73
2023/03/28 07:04:07;;;;;;;;;;;;;;;1.82;80.55;102417.66;4959775;28;20330;-73
2023/03/28 07:06:34;;;;;;;;;;;;;;;1.91;80.06;102421.13;4960726;28;19939;-73
2023/03/28 07:09:00;;;;;;;;;;;;;;;2.04;79.16;102420.56;4960249;28;20420;-73
2023/03/28 07:11:35;;;;;;;;;;;;;;;2.03;79.59;102425.03;4943629;28;19936;-72
2023/03/28 07:14:00;;;;;;;;;;;;;;;2.24;79.46;102442.94;4944808;28;19963;-72
2023/03/28 07:16:26;;;;;;;;;;;;;;;2.32;77.98;102437.63;4964295;28;19937;-73
2023/03/28 07:18:51;;;;;;;;;;;;;;;2.41;78.59;102449.78;4962782;28;19957;-72
2023/03/28 07:21:20;;;;;;;;;;;;;;;2.52;78.82;102455.69;4961133;28;19942;-72
2023/03/28 07:23:46;;;;;;;;;;;;;;;2.73;78.35;102454.06;4944261;28;19948;-72
2023/03/28 07:26:14;;;;;;;;;;;;;;;2.76;76.85;102454.69;4947828;28;19979;-72
2023/03/28 07:28:40;;;;;;;;;;;;;;;2.92;76.97;102458.06;4945250;28;19938;-72
2023/03/28 07:31:06;;;;;;;;;;;;;;;2.86;75.43;102464.06;4957324;28;19938;-72
2023/03/28 07:33:34;;;;;;;;;;;;;;;2.95;76.08;102464.81;4965208;28;20471;-73
2023/03/28 07:36:05;;;;;;;;;;;;;;;3.14;75.99;102471.47;4959249;28;20365;-73
2023/03/28 07:38:31;;;;;;;;;;;;;;;3.27;74.85;102464.56;4940171;28;19953;-74
2023/03/28 07:41:00;;;;;;;;;;;;;;;3.44;75.07;102472.34;4937247;28;19942;-74
2023/03/28 07:43:26;;;;;;;;;;;;;;;3.38;75.28;102465.13;4946147;28;20348;-74
2023/03/28 07:45:58;;;;;;;;;;;;;;;3.32;74.57;102474.63;4948179;28;19946;-70
2023/03/28 07:48:23;;;;;;;;;;;;;;;3.43;74.11;102471.53;4955394;28;19942;-73
2023/03/28 07:50:48;;;;;;;;;;;;;;;3.43;73.83;102473.34;4951095;28;19960;-74
2023/03/28 07:53:14;;;;;;;;;;;;;;;3.46;74.13;102481.78;4946479;28;19964;-74
2023/03/28 07:55:42;;;;;;;;;;;;;;;3.43;74.77;102481.31;4930771;28;19938;-74
2023/03/28 07:58:08;;;;;;;;;;;;;;;3.39;74.47;102475.56;4937586;28;20314;-72
2023/03/28 08:00:37;;;;;;;;;;;;;;;3.43;73.89;102476.81;4960184;28;19951;-73
2023/03/28 08:03:39;;;;;;;;;;;;;;;3.39;74.23;102475.56;4948725;28;19950;-72
2023/03/28 08:06:06;;;;;;;;;;;;;;;3.67;73.97;102482.91;4961685;28;19957;-72
2023/03/28 08:08:36;;;;;;;;;;;;;;;3.81;73.98;102484.75;4962178;28;19937;-73
2023/03/28 08:11:14;;;;;;;;;;;;;;;3.82;73.04;102491.69;4948507;28;20026;-71
2023/03/28 08:13:39;;;;;;;;;;;;;;;3.87;73.40;102486.66;4961845;28;20034;-72
2023/03/28 08:16:14;;;;;;;;;;;;;;;4.01;73.78;102485.84;4946523;28;19945;-72
2023/03/28 08:18:40;;;;;;;;;;;;;;;4.23;74.46;102493.88;4967032;28;19938;-73
2023/03/28 08:21:06;;;;;;;;;;;;;;;4.06;72.51;102493.22;4935876;28;20281;-72
2023/03/28 08:23:32;;;;;;;;;;;;;;;4.30;72.47;102489.47;4954003;28;20106;-73
2023/03/28 08:26:21;;;;;;;;;;;;;;;4.60;72.13;102495.53;4947281;28;20522;-74
2023/03/28 08:28:53;;;;;;;;;;;;;;;4.83;70.37;102500.69;4932243;28;19971;-73
2023/03/28 08:31:23;;;;;;;;;;;;;;;4.83;71.36;102506.00;4941948;28;20021;-73
2023/03/28 08:33:53;;;;;;;;;;;;;;;5.03;65.67;102500.91;4941166;28;20010;-74
2023/03/28 08:36:23;;;;;;;;;;;;;;;5.08;66.51;102504.63;4975836;28;19949;-75
2023/03/28 08:38:49;;;;;;;;;;;;;;;4.97;69.09;102502.47;4961468;28;19960;-73
2023/03/28 08:41:21;;;;;;;;;;;;;;;5.13;69.53;102496.91;4937798;28;20040;-72
2023/03/28 08:43:59;;;;;;;;;;;;;;;5.12;67.03;102495.25;4957300;28;19934;-74
2023/03/28 08:46:28;;;;;;;;;;;;;;;5.45;66.41;102494.72;4945331;28;20463;-71
2023/03/28 08:48:55;;;;;;;;;;;;;;;5.54;64.17;102514.81;4933358;28;19957;-73
2023/03/28 08:51:30;;;;;;;;;;;;;;;5.60;65.48;102506.06;4945600;28;19985;-73
2023/03/28 08:54:18;;;;;;;;;;;;;;;5.59;66.73;102507.09;4944048;28;19960;-73
2023/03/28 08:56:47;;;;;;;;;;;;;;;5.66;63.78;102507.97;4978343;28;19938;-72
2023/03/28 08:59:15;;;;;;;;;;;;;;;5.53;64.28;102504.38;4960409;28;19952;-73
2023/03/28 09:01:41;;;;;;;;;;;;;;;5.38;64.84;102509.78;4944918;28;19990;-73
2023/03/28 09:04:19;;;;;;;;;;;;;;;5.41;65.42;102509.38;4960844;28;19939;-73
2023/03/28 09:06:48;;;;;;;;;;;;;;;5.56;66.33;102506.66;4964593;28;19945;-73
2023/03/28 09:09:19;;;;;;;;;;;;;;;5.95;64.79;102508.78;4941616;28;20422;-73
2023/03/28 09:11:59;;;;;;;;;;;;;;;5.41;63.30;102504.91;4959479;28;20060;-72
2023/03/28 09:14:26;;;;;;;;;;;;;;;5.79;62.81;102503.75;4962255;28;19938;-72
2023/03/28 09:17:06;;;;;;;;;;;;;;;5.58;62.32;102507.28;4942396;29;19952;-72
2023/03/28 09:19:44;;;;;;;;;;;;;;;5.05;65.36;102507.66;4972586;28;19956;-73
2023/03/28 09:22:36;;;;;;;;;;;;;;;5.50;65.51;102510.91;4955939;28;20569;-72
2023/03/28 09:25:01;;;;;;;;;;;;;;;6.16;64.28;102507.88;4961470;28;19951;-72
2023/03/28 09:27:39;;;;;;;;;;;;;;;6.04;63.13;102504.97;4974154;28;20044;-72
2023/03/28 09:30:18;;;;;;;;;;;;;;;6.00;63.23;102504.53;4959013;28;20006;-73
2023/03/28 09:32:44;;;;;;;;;;;;;;;5.76;62.75;102507.63;4943369;29;19952;-73
2023/03/28 09:35:18;;;;;;;;;;;;;;;5.57;61.82;102509.13;4944507;28;19936;-72
2023/03/28 09:37:49;;;;;;;;;;;;;;;5.40;60.56;102505.91;4959879;28;19940;-72
2023/03/28 09:40:17;;;;;;;;;;;;;;;5.90;63.62;102504.03;4940159;28;19955;-73
2023/03/28 09:43:06;;;;;;;;;;;;;;;6.24;60.15;102494.44;4944174;28;19942;-73
2023/03/28 09:45:53;;;;;;;;;;;;;;;7.01;57.21;102493.22;4963803;28;19986;-73
2023/03/28 09:48:45;;;;;;;;;;;;;;;7.96;55.77;102493.78;4942332;28;20363;-72
2023/03/28 09:51:17;;;;;;;;;;;;;;;8.29;55.49;102489.16;4954582;28;19943;-72
2023/03/28 09:53:45;;;;;;;;;;;;;;;8.16;52.27;102499.88;4954100;28;19962;-71
2023/03/28 09:56:13;;;;;;;;;;;;;;;7.45;55.12;102505.13;4936809;28;20316;-73
2023/03/28 09:58:45;;;;;;;;;;;;;;;6.31;58.73;102511.25;4958372;28;20375;-73
2023/03/28 10:01:33;;;;;;;;;;;;;;;6.06;61.89;102526.03;4940742;28;19948;-74
2023/03/28 10:04:20;;;;;;;;;;;;;;;5.74;61.66;102529.06;4945639;28;19949;-72
2023/03/28 10:07:10;;;;;;;;;;;;;;;6.25;60.52;102520.84;4961041;28;19932;-73
2023/03/28 10:09:51;;;;;;;;;;;;;;;6.70;58.52;102510.56;4961177;28;20466;-73
2023/03/28 10:12:19;;;;;;;;;;;;;;;7.22;56.97;102514.34;4956855;28;19984;-71
2023/03/28 10:14:48;;;;;;;;;;;;;;;7.42;56.09;102502.88;4963230;28;19971;-75
2023/03/28 10:17:39;;;;;;;;;;;;;;;8.09;55.11;102512.44;4975316;28;19935;-75
2023/03/28 10:20:20;;;;;;;;;;;;;;;8.23;53.38;102511.34;4957475;28;19950;-73
2023/03/28 10:22:51;;;;;;;;;;;;;;;8.94;51.52;102503.25;4934769;28;20026;-72
2023/03/28 10:25:20;;;;;;;;;;;;;;;8.03;54.38;102497.25;4959012;28;20715;-73
2023/03/28 10:27:50;;;;;;;;;;;;;;;8.04;55.19;102506.88;4936387;28;19941;-72
2023/03/28 10:30:20;;;;;;;;;;;;;;;8.23;52.76;102506.00;4941972;28;20057;-72
2023/03/28 10:33:06;;;;;;;;;;;;;;;7.70;52.79;102516.81;4941961;28;19958;-74
2023/03/28 10:35:59;;;;;;;;;;;;;;;7.98;53.93;102510.38;4935642;28;19960;-72
2023/03/28 10:38:29;;;;;;;;;;;;;;;7.79;55.48;102512.91;4963012;28;19951;-72
2023/03/28 10:41:32;;;;;;;;;;;;;;;7.82;54.61;102515.16;4956035;28;20321;-73
2023/03/28 10:44:17;;;;;;;;;;;;;;;7.78;54.81;102521.91;4945138;28;19944;-72
2023/03/28 10:46:50;;;;;;;;;;;;;;;7.48;55.35;102526.06;4962545;28;19943;-72
2023/03/28 10:49:24;;;;;;;;;;;;;;;7.32;54.26;102520.09;4965688;28;19958;-71
2023/03/28 10:51:59;;;;;;;;;;;;;;;7.28;54.55;102529.53;4948334;28;19934;-72
2023/03/28 10:54:38;;;;;;;;;;;;;;;7.41;54.83;102522.56;4924688;28;20404;-73
2023/03/28 10:57:29;;;;;;;;;;;;;;;7.80;55.65;102527.06;4947786;28;19932;-73
2023/03/28 11:00:08;;;;;;;;;;;;;;;7.75;56.91;102522.34;4929994;28;19954;-73
2023/03/28 11:02:45;;;;;;;;;;;;;;;7.87;56.19;102520.69;4948449;28;19944;-73
2023/03/28 11:05:33;;;;;;;;;;;;;;;7.96;54.68;102510.59;4963039;28;20419;-73
2023/03/28 11:08:07;;;;;;;;;;;;;;;7.98;50.68;102519.22;4952678;28;20040;-74
2023/03/28 11:10:50;;;;;;;;;;;;;;;7.83;53.55;102507.97;4959057;28;20468;-73
2023/03/28 11:13:25;;;;;;;;;;;;;;;8.43;53.57;102517.47;4961326;28;20053;-75
2023/03/28 11:15:54;;;;;;;;;;;;;;;8.81;50.39;102511.34;4961005;28;20031;-73
2023/03/28 11:18:39;;;;;;;;;;;;;;;7.87;51.11;102518.03;4940358;28;21180;-72
2023/03/28 11:21:19;;;;;;;;;;;;;;;7.78;52.86;102523.75;4959009;28;20045;-73
2023/03/28 11:23:49;;;;;;;;;;;;;;;8.11;51.02;102519.19;4958156;28;20024;-74
2023/03/28 11:26:43;;;;;;;;;;;;;;;8.09;49.98;102523.09;4949482;28;19934;-72
2023/03/28 11:29:31;;;;;;;;;;;;;;;7.89;49.90;102526.63;4938858;28;20087;-73
2023/03/28 11:32:09;;;;;;;;;;;;;;;7.79;53.49;102520.91;4945208;28;20312;-72
2023/03/28 11:34:38;;;;;;;;;;;;;;;7.80;53.43;102522.53;4946622;28;19941;-71
2023/03/28 11:37:20;;;;;;;;;;;;;;;8.38;53.37;102519.94;4933759;28;20388;-73
2023/03/28 11:39:51;;;;;;;;;;;;;;;7.79;55.74;102515.56;4931648;28;19946;-74
2023/03/28 11:42:37;;;;;;;;;;;;;;;7.26;58.04;102520.91;4954720;28;20413;-73
2023/03/28 11:45:06;;;;;;;;;;;;;;;8.05;55.85;102513.88;4939816;28;19966;-74
2023/03/28 11:47:47;;;;;;;;;;;;;;;8.43;56.38;102512.13;4965669;28;19946;-72
2023/03/28 11:50:13;;;;;;;;;;;;;;;8.01;57.03;102513.47;4946174;28;19972;-73
2023/03/28 11:53:23;;;;;;;;;;;;;;;7.45;58.25;102518.44;4963212;28;20424;-72
2023/03/28 11:56:02;;;;;;;;;;;;;;;7.02;60.72;102518.81;4950325;28;19945;-74
2023/03/28 11:58:54;;;;;;;;;;;;;;;6.69;59.25;102513.41;4957209;28;19956;-74
2023/03/28 12:01:22;;;;;;;;;;;;;;;6.92;59.92;102519.22;4945023;28;19962;-73
2023/03/28 12:03:59;;;;;;;;;;;;;;;6.92;60.87;102513.09;4958784;28;19990;-73
2023/03/28 12:06:25;;;;;;;;;;;;;;;6.76;61.44;102509.75;4941849;28;19949;-72
2023/03/28 12:09:03;;;;;;;;;;;;;;;6.47;62.66;102510.91;4938761;28;19953;-73
2023/03/28 12:11:49;;;;;;;;;;;;;;;6.63;62.30;102504.38;4930812;28;19941;-75
2023/03/28 12:14:25;;;;;;;;;;;;;;;6.84;62.90;102506.09;4954187;28;19959;-74
2023/03/28 12:16:53;;;;;;;;;;;;;;;7.90;61.06;102501.59;4958972;28;19938;-72
2023/03/28 12:19:30;;;;;;;;;;;;;;;8.26;58.61;102488.75;4958051;28;20114;-72
2023/03/28 12:22:20;;;;;;;;;;;;;;;7.86;59.33;102500.38;4960705;28;19935;-73
2023/03/28 12:25:06;;;;;;;;;;;;;;;7.48;62.91;102496.72;4945674;28;19948;-72
2023/03/28 12:27:41;;;;;;;;;;;;;;;7.28;60.84;102489.53;4948770;28;19937;-74
2023/03/28 12:30:21;;;;;;;;;;;;;;;7.43;59.46;102494.66;4944039;28;19956;-74
2023/03/28 12:33:00;;;;;;;;;;;;;;;8.14;59.97;102491.28;4954199;28;19952;-73
2023/03/28 12:35:43;;;;;;;;;;;;;;;8.26;54.52;102489.56;4926944;28;20736;-73
2023/03/28 12:38:27;;;;;;;;;;;;;;;8.53;55.07;102481.47;4959251;28;19949;-73
2023/03/28 12:41:02;;;;;;;;;;;;;;;8.46;54.60;102485.00;4963525;28;19964;-75
2023/03/28 12:43:47;;;;;;;;;;;;;;;7.62;55.60;102488.50;4947789;28;19963;-72
2023/03/28 12:46:28;;;;;;;;;;;;;;;7.94;57.39;102481.47;4961128;28;20331;-72
2023/03/28 12:49:06;;;;;;;;;;;;;;;8.19;56.13;102489.59;4941147;28;19954;-73
2023/03/28 12:51:35;;;;;;;;;;;;;;;7.71;57.03;102497.09;4963745;28;19947;-73
2023/03/28 12:54:20;;;;;;;;;;;;;;;7.15;56.87;102491.38;4957852;28;19954;-72
2023/03/28 12:56:57;;;;;;;;;;;;;;;6.82;59.06;102495.63;4980435;28;19982;-73
2023/03/28 12:59:38;;;;;;;;;;;;;;;6.67;59.20;102496.84;4949500;28;19989;-73
2023/03/28 13:02:24;;;;;;;;;;;;;;;6.54;58.73;102493.09;4939896;28;19942;-72
2023/03/28 13:05:00;;;;;;;;;;;;;;;6.66;60.03;102489.88;4961987;28;19934;-72
2023/03/28 13:07:35;;;;;;;;;;;;;;;6.66;61.32;102495.19;4956662;28;19942;-72
2023/03/28 13:10:00;;;;;;;;;;;;;;;6.51;61.73;102495.34;4957945;28;19960;-73
2023/03/28 13:12:32;;;;;;;;;;;;;;;6.37;62.15;102496.31;4956741;28;19960;-73
2023/03/28 13:15:17;;;;;;;;;;;;;;;5.86;63.92;102496.63;4943861;28;19942;-71